sensor_id;sensor_type;location;lat;lon;timestamp;temperature;humidity
53954;HTU21D;39862;54.856;26.318;2023-03-11T00:03:49;0.8;66.3
53954;HTU21D;39862;54.856;26.318;2023-03-11T00:08:39;0.9;66.2
53954;HTU21D;39862;54.856;26.318;2023-03-11T00:13:29;0.9;66.3
53954;HTU21D;39862;54.856;26.318;2023-03-11T00:18:29;0.9;66.3
53954;HTU21D;39862;54.856;26.318;2023-03-11T00:23:29;0.9;66.6
53954;HTU21D;39862;54.856;26.318;2023-03-11T00:28:29;0.9;66.8
53954;HTU21D;39862;54.856;26.318;2023-03-11T00:33:39;1;66.9
53954;HTU21D;39862;54.856;26.318;2023-03-11T00:38:39;1;66.8
53954;HTU21D;39862;54.856;26.318;2023-03-11T00:43:29;1;66.9
53954;HTU21D;39862;54.856;26.318;2023-03-11T00:48:41;1;67.2
53954;HTU21D;39862;54.856;26.318;2023-03-11T00:53:29;1;67.5
53954;HTU21D;39862;54.856;26.318;2023-03-11T00:58:29;1.1;67.6
53954;HTU21D;39862;54.856;26.318;2023-03-11T01:03:39;1.1;67.8
53954;HTU21D;39862;54.856;26.318;2023-03-11T01:08:35;1.1;67.8
53954;HTU21D;39862;54.856;26.318;2023-03-11T01:13:29;1.1;67.8
53954;HTU21D;39862;54.856;26.318;2023-03-11T01:18:29;1.2;67.8
53954;HTU21D;39862;54.856;26.318;2023-03-11T01:23:39;1.2;67.9
53954;HTU21D;39862;54.856;26.318;2023-03-11T01:28:39;1.2;68.1
53954;HTU21D;39862;54.856;26.318;2023-03-11T01:33:33;1.3;68.1
53954;HTU21D;39862;54.856;26.318;2023-03-11T01:38:41;1.3;68
53954;HTU21D;39862;54.856;26.318;2023-03-11T01:43:58;1.4;68.3
53954;HTU21D;39862;54.856;26.318;2023-03-11T01:49:02;1.4;68.4
53954;HTU21D;39862;54.856;26.318;2023-03-11T01:53:29;1.4;68.6
53954;HTU21D;39862;54.856;26.318;2023-03-11T01:58:49;1.4;68.8
53954;HTU21D;39862;54.856;26.318;2023-03-11T02:03:49;1.5;68.8
53954;HTU21D;39862;54.856;26.318;2023-03-11T02:08:35;1.5;69
53954;HTU21D;39862;54.856;26.318;2023-03-11T02:13:49;1.5;69.1
53954;HTU21D;39862;54.856;26.318;2023-03-11T02:18:37;1.6;69.2
53954;HTU21D;39862;54.856;26.318;2023-03-11T02:23:40;1.6;69.4
53954;HTU21D;39862;54.856;26.318;2023-03-11T02:28:45;1.6;69.4
53954;HTU21D;39862;54.856;26.318;2023-03-11T02:33:45;1.6;69.4
53954;HTU21D;39862;54.856;26.318;2023-03-11T02:38:47;1.7;69.4
53954;HTU21D;39862;54.856;26.318;2023-03-11T02:43:30;1.7;69.6
53954;HTU21D;39862;54.856;26.318;2023-03-11T02:48:37;1.8;69.6
53954;HTU21D;39862;54.856;26.318;2023-03-11T02:53:40;1.8;69.5
53954;HTU21D;39862;54.856;26.318;2023-03-11T02:58:39;1.8;69.6
53954;HTU21D;39862;54.856;26.318;2023-03-11T03:03:35;1.9;69.7
53954;HTU21D;39862;54.856;26.318;2023-03-11T03:08:37;1.9;69.8
53954;HTU21D;39862;54.856;26.318;2023-03-11T03:13:47;1.9;69.9
53954;HTU21D;39862;54.856;26.318;2023-03-11T03:18:47;1.9;69.8
53954;HTU21D;39862;54.856;26.318;2023-03-11T03:23:27;2;69.8
53954;HTU21D;39862;54.856;26.318;2023-03-11T03:28:49;2;69.8
53954;HTU21D;39862;54.856;26.318;2023-03-11T03:33:49;2.1;69.8
53954;HTU21D;39862;54.856;26.318;2023-03-11T03:38:39;2.1;69.8
53954;HTU21D;39862;54.856;26.318;2023-03-11T03:43:29;2.1;69.8
53954;HTU21D;39862;54.856;26.318;2023-03-11T03:48:29;2.2;69.9
53954;HTU21D;39862;54.856;26.318;2023-03-11T03:53:39;2.2;70
53954;HTU21D;39862;54.856;26.318;2023-03-11T03:58:39;2.2;70
53954;HTU21D;39862;54.856;26.318;2023-03-11T04:03:49;2.2;70.2
53954;HTU21D;39862;54.856;26.318;2023-03-11T04:08:47;2.2;70.2
53954;HTU21D;39862;54.856;26.318;2023-03-11T04:13:49;2.3;70.3
53954;HTU21D;39862;54.856;26.318;2023-03-11T04:18:57;2.3;70.4
53954;HTU21D;39862;54.856;26.318;2023-03-11T04:23:29;2.3;70.4
53954;HTU21D;39862;54.856;26.318;2023-03-11T04:28:57;2.3;70.4
53954;HTU21D;39862;54.856;26.318;2023-03-11T04:33:35;2.3;70.5
53954;HTU21D;39862;54.856;26.318;2023-03-11T04:38:39;2.4;70.6
53954;HTU21D;39862;54.856;26.318;2023-03-11T04:43:47;2.4;70.7
53954;HTU21D;39862;54.856;26.318;2023-03-11T04:48:27;2.4;70.9
53954;HTU21D;39862;54.856;26.318;2023-03-11T04:53:47;2.4;71
53954;HTU21D;39862;54.856;26.318;2023-03-11T04:58:41;2.5;71.3
53954;HTU21D;39862;54.856;26.318;2023-03-11T05:03:29;2.5;71.3
53954;HTU21D;39862;54.856;26.318;2023-03-11T05:08:29;2.5;71.2
53954;HTU21D;39862;54.856;26.318;2023-03-11T05:13:39;2.5;71.4
53954;HTU21D;39862;54.856;26.318;2023-03-11T05:18:29;2.6;71.5
53954;HTU21D;39862;54.856;26.318;2023-03-11T05:23:41;2.6;71.7
53954;HTU21D;39862;54.856;26.318;2023-03-11T05:28:29;2.6;71.8
53954;HTU21D;39862;54.856;26.318;2023-03-11T05:34:03;2.6;72
53954;HTU21D;39862;54.856;26.318;2023-03-11T05:38:49;2.6;72
53954;HTU21D;39862;54.856;26.318;2023-03-11T05:43:43;2.7;72.1
53954;HTU21D;39862;54.856;26.318;2023-03-11T05:48:27;2.7;72.1
53954;HTU21D;39862;54.856;26.318;2023-03-11T05:53:27;2.7;72.2
53954;HTU21D;39862;54.856;26.318;2023-03-11T05:58:51;2.8;72.3
53954;HTU21D;39862;54.856;26.318;2023-03-11T06:03:49;2.8;72.4
53954;HTU21D;39862;54.856;26.318;2023-03-11T06:08:29;2.8;72.4
53954;HTU21D;39862;54.856;26.318;2023-03-11T06:13:51;2.8;72.4
53954;HTU21D;39862;54.856;26.318;2023-03-11T06:18:29;2.9;72.4
53954;HTU21D;39862;54.856;26.318;2023-03-11T06:23:29;2.9;72.5
53954;HTU21D;39862;54.856;26.318;2023-03-11T06:28:53;2.9;72.5
53954;HTU21D;39862;54.856;26.318;2023-03-11T06:33:33;2.9;72.7
53954;HTU21D;39862;54.856;26.318;2023-03-11T06:38:27;3;72.8
53954;HTU21D;39862;54.856;26.318;2023-03-11T06:43:43;3;72.7
53954;HTU21D;39862;54.856;26.318;2023-03-11T06:48:27;3;72.6
53954;HTU21D;39862;54.856;26.318;2023-03-11T06:53:51;3;72.5
53954;HTU21D;39862;54.856;26.318;2023-03-11T06:58:37;3;72.5
53954;HTU21D;39862;54.856;26.318;2023-03-11T07:03:39;3.1;72.4
53954;HTU21D;39862;54.856;26.318;2023-03-11T07:08:35;3.1;72.3
53954;HTU21D;39862;54.856;26.318;2023-03-11T07:13:51;3.1;72.4
53954;HTU21D;39862;54.856;26.318;2023-03-11T07:18:29;3.1;72.3
53954;HTU21D;39862;54.856;26.318;2023-03-11T07:23:39;3.1;72.3
53954;HTU21D;39862;54.856;26.318;2023-03-11T07:28:29;3.2;72.4
53954;HTU21D;39862;54.856;26.318;2023-03-11T07:33:27;3.2;72.5
53954;HTU21D;39862;54.856;26.318;2023-03-11T07:38:27;3.2;72.6
53954;HTU21D;39862;54.856;26.318;2023-03-11T07:44:11;3.2;72.7
53954;HTU21D;39862;54.856;26.318;2023-03-11T07:48:27;3.2;72.6
53954;HTU21D;39862;54.856;26.318;2023-03-11T07:53:39;3.2;72.8
53954;HTU21D;39862;54.856;26.318;2023-03-11T07:58:33;3.2;72.6
53954;HTU21D;39862;54.856;26.318;2023-03-11T08:03:27;3.2;72.7
53954;HTU21D;39862;54.856;26.318;2023-03-11T08:08:27;3.2;72.7
53954;HTU21D;39862;54.856;26.318;2023-03-11T08:13:37;3.3;72.7
53954;HTU21D;39862;54.856;26.318;2023-03-11T08:18:35;3.3;72.8
53954;HTU21D;39862;54.856;26.318;2023-03-11T08:23:27;3.3;72.8
53954;HTU21D;39862;54.856;26.318;2023-03-11T08:28:27;3.3;72.7
53954;HTU21D;39862;54.856;26.318;2023-03-11T08:33:27;3.3;72.7
53954;HTU21D;39862;54.856;26.318;2023-03-11T08:38:37;3.3;72.7
53954;HTU21D;39862;54.856;26.318;2023-03-11T08:43:49;3.4;72.7
53954;HTU21D;39862;54.856;26.318;2023-03-11T08:48:27;3.4;72.7
53954;HTU21D;39862;54.856;26.318;2023-03-11T08:53:27;3.4;72.6
53954;HTU21D;39862;54.856;26.318;2023-03-11T08:58:27;3.4;72.6
53954;HTU21D;39862;54.856;26.318;2023-03-11T09:03:37;3.4;72.6
53954;HTU21D;39862;54.856;26.318;2023-03-11T09:09:01;3.4;72.5
53954;HTU21D;39862;54.856;26.318;2023-03-11T09:13:33;3.4;72.6
53954;HTU21D;39862;54.856;26.318;2023-03-11T09:18:27;3.5;72.7
53954;HTU21D;39862;54.856;26.318;2023-03-11T09:23:27;3.5;72.7
53954;HTU21D;39862;54.856;26.318;2023-03-11T09:28:27;3.5;72.5
53954;HTU21D;39862;54.856;26.318;2023-03-11T09:33:40;3.5;72.6
53954;HTU21D;39862;54.856;26.318;2023-03-11T09:38:27;3.5;72.8
53954;HTU21D;39862;54.856;26.318;2023-03-11T09:43:33;3.5;72.8
53954;HTU21D;39862;54.856;26.318;2023-03-11T09:48:42;3.5;73
53954;HTU21D;39862;54.856;26.318;2023-03-11T09:53:28;3.6;73.2
53954;HTU21D;39862;54.856;26.318;2023-03-11T09:59:02;3.6;73.3
53954;HTU21D;39862;54.856;26.318;2023-03-11T10:03:29;3.6;73.6
53954;HTU21D;39862;54.856;26.318;2023-03-11T10:08:39;3.6;73.5
53954;HTU21D;39862;54.856;26.318;2023-03-11T10:13:38;3.6;73.4
53954;HTU21D;39862;54.856;26.318;2023-03-11T10:18:48;3.6;73.6
53954;HTU21D;39862;54.856;26.318;2023-03-11T10:23:29;3.7;73.7
53954;HTU21D;39862;54.856;26.318;2023-03-11T10:28:44;3.7;73.8
53954;HTU21D;39862;54.856;26.318;2023-03-11T10:33:38;3.7;73.9
53954;HTU21D;39862;54.856;26.318;2023-03-11T10:38:47;3.8;74
53954;HTU21D;39862;54.856;26.318;2023-03-11T10:43:50;3.8;74.2
53954;HTU21D;39862;54.856;26.318;2023-03-11T10:48:29;3.8;74.3
53954;HTU21D;39862;54.856;26.318;2023-03-11T10:53:37;3.8;74.5
53954;HTU21D;39862;54.856;26.318;2023-03-11T10:58:47;3.8;74.5
53954;HTU21D;39862;54.856;26.318;2023-03-11T11:03:50;3.9;74.5
53954;HTU21D;39862;54.856;26.318;2023-03-11T11:08:39;3.9;74.6
53954;HTU21D;39862;54.856;26.318;2023-03-11T11:13:30;3.9;74.7
53954;HTU21D;39862;54.856;26.318;2023-03-11T11:18:33;3.9;74.9
53954;HTU21D;39862;54.856;26.318;2023-03-11T11:23:48;4;74.9
53954;HTU21D;39862;54.856;26.318;2023-03-11T11:28:27;4;74.9
53954;HTU21D;39862;54.856;26.318;2023-03-11T11:33:38;4;75
53954;HTU21D;39862;54.856;26.318;2023-03-11T11:38:39;4.1;75.1
53954;HTU21D;39862;54.856;26.318;2023-03-11T11:43:34;4.1;75.3
53954;HTU21D;39862;54.856;26.318;2023-03-11T11:48:53;4.1;75.7
53954;HTU21D;39862;54.856;26.318;2023-03-11T11:54:02;4.1;75.6
53954;HTU21D;39862;54.856;26.318;2023-03-11T11:58:45;4.1;75.7
53954;HTU21D;39862;54.856;26.318;2023-03-11T12:03:46;4.2;75.7
53954;HTU21D;39862;54.856;26.318;2023-03-11T12:08:41;4.2;75.9
53954;HTU21D;39862;54.856;26.318;2023-03-11T12:13:44;4.2;76.1
53954;HTU21D;39862;54.856;26.318;2023-03-11T12:18:40;4.2;76.5
53954;HTU21D;39862;54.856;26.318;2023-03-11T12:23:32;4.2;76.7
53954;HTU21D;39862;54.856;26.318;2023-03-11T12:28:40;4.3;76.7
53954;HTU21D;39862;54.856;26.318;2023-03-11T12:33:35;4.3;76.5
53954;HTU21D;39862;54.856;26.318;2023-03-11T12:38:49;4.3;76.2
53954;HTU21D;39862;54.856;26.318;2023-03-11T12:44:00;4.3;76.1
53954;HTU21D;39862;54.856;26.318;2023-03-11T12:48:41;4.4;76.2
53954;HTU21D;39862;54.856;26.318;2023-03-11T12:53:45;4.4;76.2
53954;HTU21D;39862;54.856;26.318;2023-03-11T12:58:41;4.4;76
53954;HTU21D;39862;54.856;26.318;2023-03-11T13:03:38;4.4;76
53954;HTU21D;39862;54.856;26.318;2023-03-11T13:08:49;4.4;76
53954;HTU21D;39862;54.856;26.318;2023-03-11T13:13:29;4.4;76
53954;HTU21D;39862;54.856;26.318;2023-03-11T13:18:47;4.4;76
53954;HTU21D;39862;54.856;26.318;2023-03-11T13:23:28;4.4;76
53954;HTU21D;39862;54.856;26.318;2023-03-11T13:28:34;4.4;75.8
53954;HTU21D;39862;54.856;26.318;2023-03-11T13:33:30;4.3;76
53954;HTU21D;39862;54.856;26.318;2023-03-11T13:38:41;4.3;75.8
53954;HTU21D;39862;54.856;26.318;2023-03-11T13:43:27;4.3;75.8
53954;HTU21D;39862;54.856;26.318;2023-03-11T13:48:43;4.4;75.7
53954;HTU21D;39862;54.856;26.318;2023-03-11T13:53:28;4.3;75.6
53954;HTU21D;39862;54.856;26.318;2023-03-11T13:58:33;4.3;75.6
53954;HTU21D;39862;54.856;26.318;2023-03-11T14:03:39;4.3;75.5
53954;HTU21D;39862;54.856;26.318;2023-03-11T14:08:38;4.3;75.3
53954;HTU21D;39862;54.856;26.318;2023-03-11T14:13:37;4.3;75.4
53954;HTU21D;39862;54.856;26.318;2023-03-11T14:18:29;4.3;75.3
53954;HTU21D;39862;54.856;26.318;2023-03-11T14:23:28;4.3;75.3
53954;HTU21D;39862;54.856;26.318;2023-03-11T14:28:27;4.3;75.2
53954;HTU21D;39862;54.856;26.318;2023-03-11T14:33:27;4.3;75.1
53954;HTU21D;39862;54.856;26.318;2023-03-11T14:38:28;4.3;75.2
53954;HTU21D;39862;54.856;26.318;2023-03-11T14:43:27;4.3;75
53954;HTU21D;39862;54.856;26.318;2023-03-11T14:48:28;4.3;74.8
53954;HTU21D;39862;54.856;26.318;2023-03-11T14:53:38;4.3;74.8
53954;HTU21D;39862;54.856;26.318;2023-03-11T14:58:29;4.3;74.8
53954;HTU21D;39862;54.856;26.318;2023-03-11T15:03:46;4.3;74.8
53954;HTU21D;39862;54.856;26.318;2023-03-11T15:08:28;4.3;74.8
53954;HTU21D;39862;54.856;26.318;2023-03-11T15:13:38;4.2;74.7
53954;HTU21D;39862;54.856;26.318;2023-03-11T15:18:28;4.2;74.7
53954;HTU21D;39862;54.856;26.318;2023-03-11T15:23:48;4.2;74.8
53954;HTU21D;39862;54.856;26.318;2023-03-11T15:28:28;4.2;75
53954;HTU21D;39862;54.856;26.318;2023-03-11T15:33:29;4.1;75.4
53954;HTU21D;39862;54.856;26.318;2023-03-11T15:38:35;4.1;75.6
53954;HTU21D;39862;54.856;26.318;2023-03-11T15:43:29;4.1;75.6
53954;HTU21D;39862;54.856;26.318;2023-03-11T15:48:41;4.1;75.4
53954;HTU21D;39862;54.856;26.318;2023-03-11T15:53:43;4.1;75.2
53954;HTU21D;39862;54.856;26.318;2023-03-11T15:58:27;4;75.1
53954;HTU21D;39862;54.856;26.318;2023-03-11T16:03:37;4;75
53954;HTU21D;39862;54.856;26.318;2023-03-11T16:08:33;4;74.9
53954;HTU21D;39862;54.856;26.318;2023-03-11T16:13:59;3.9;74.7
53954;HTU21D;39862;54.856;26.318;2023-03-11T16:18:37;3.9;74.6
53954;HTU21D;39862;54.856;26.318;2023-03-11T16:23:37;3.9;74.4
53954;HTU21D;39862;54.856;26.318;2023-03-11T16:28:33;3.8;74.3
53954;HTU21D;39862;54.856;26.318;2023-03-11T16:33:27;3.8;74.2
53954;HTU21D;39862;54.856;26.318;2023-03-11T16:38:48;3.7;74.1
53954;HTU21D;39862;54.856;26.318;2023-03-11T16:43:33;3.7;74
53954;HTU21D;39862;54.856;26.318;2023-03-11T16:48:27;3.7;74
53954;HTU21D;39862;54.856;26.318;2023-03-11T16:53:33;3.7;73.9
53954;HTU21D;39862;54.856;26.318;2023-03-11T16:58:43;3.6;73.8
53954;HTU21D;39862;54.856;26.318;2023-03-11T17:03:27;3.6;73.8
53954;HTU21D;39862;54.856;26.318;2023-03-11T17:08:33;3.6;73.8
53954;HTU21D;39862;54.856;26.318;2023-03-11T17:13:27;3.6;73.7
53954;HTU21D;39862;54.856;26.318;2023-03-11T17:18:55;3.6;73.7
53954;HTU21D;39862;54.856;26.318;2023-03-11T17:23:43;3.5;73.7
53954;HTU21D;39862;54.856;26.318;2023-03-11T17:28:33;3.5;73.6
53954;HTU21D;39862;54.856;26.318;2023-03-11T17:33:27;3.5;73.6
53954;HTU21D;39862;54.856;26.318;2023-03-11T17:38:37;3.5;73.6
53954;HTU21D;39862;54.856;26.318;2023-03-11T17:43:43;3.4;73.5
53954;HTU21D;39862;54.856;26.318;2023-03-11T17:48:27;3.4;73.4
53954;HTU21D;39862;54.856;26.318;2023-03-11T17:53:27;3.3;73.3
53954;HTU21D;39862;54.856;26.318;2023-03-11T17:58:27;3.3;73.1
53954;HTU21D;39862;54.856;26.318;2023-03-11T18:03:47;3.2;72.9
53954;HTU21D;39862;54.856;26.318;2023-03-11T18:08:37;3.1;72.8
53954;HTU21D;39862;54.856;26.318;2023-03-11T18:13:49;3.1;72.6
53954;HTU21D;39862;54.856;26.318;2023-03-11T18:18:28;3;72.7
53954;HTU21D;39862;54.856;26.318;2023-03-11T18:23:37;3;72.6
53954;HTU21D;39862;54.856;26.318;2023-03-11T18:28:47;3;72.5
53954;HTU21D;39862;54.856;26.318;2023-03-11T18:33:27;3;72.5
53954;HTU21D;39862;54.856;26.318;2023-03-11T18:38:37;2.9;72.3
53954;HTU21D;39862;54.856;26.318;2023-03-11T18:43:27;2.9;72.3
53954;HTU21D;39862;54.856;26.318;2023-03-11T18:48:43;2.9;72
53954;HTU21D;39862;54.856;26.318;2023-03-11T18:53:27;2.7;71.9
53954;HTU21D;39862;54.856;26.318;2023-03-11T18:58:57;2.7;71.9
53954;HTU21D;39862;54.856;26.318;2023-03-11T19:03:44;2.7;71.9
53954;HTU21D;39862;54.856;26.318;2023-03-11T19:08:27;2.7;71.9
53954;HTU21D;39862;54.856;26.318;2023-03-11T19:13:41;2.6;71.7
53954;HTU21D;39862;54.856;26.318;2023-03-11T19:18:29;2.6;71.6
53954;HTU21D;39862;54.856;26.318;2023-03-11T19:23:59;2.6;71.6
53954;HTU21D;39862;54.856;26.318;2023-03-11T19:28:29;2.5;71.5
53954;HTU21D;39862;54.856;26.318;2023-03-11T19:33:29;2.5;71.6
53954;HTU21D;39862;54.856;26.318;2023-03-11T19:38:45;2.5;71.8
53954;HTU21D;39862;54.856;26.318;2023-03-11T19:43:40;2.6;71.7
53954;HTU21D;39862;54.856;26.318;2023-03-11T19:48:29;2.5;71.5
53954;HTU21D;39862;54.856;26.318;2023-03-11T19:53:29;2.5;71.5
53954;HTU21D;39862;54.856;26.318;2023-03-11T19:58:40;2.5;71.5
53954;HTU21D;39862;54.856;26.318;2023-03-11T20:03:45;2.5;71.4
53954;HTU21D;39862;54.856;26.318;2023-03-11T20:08:29;2.4;71.5
53954;HTU21D;39862;54.856;26.318;2023-03-11T20:13:59;2.5;71.4
53954;HTU21D;39862;54.856;26.318;2023-03-11T20:18:53;2.5;71.4
53954;HTU21D;39862;54.856;26.318;2023-03-11T20:23:41;2.5;71.4
53954;HTU21D;39862;54.856;26.318;2023-03-11T20:28:59;2.4;71.2
53954;HTU21D;39862;54.856;26.318;2023-03-11T20:33:39;2.4;71.3
53954;HTU21D;39862;54.856;26.318;2023-03-11T20:38:35;2.4;71.2
53954;HTU21D;39862;54.856;26.318;2023-03-11T20:43:39;2.4;71.1
53954;HTU21D;39862;54.856;26.318;2023-03-11T20:48:49;2.4;71.1
53954;HTU21D;39862;54.856;26.318;2023-03-11T20:53:39;2.4;70.9
53954;HTU21D;39862;54.856;26.318;2023-03-11T20:58:49;2.4;70.8
53954;HTU21D;39862;54.856;26.318;2023-03-11T21:03:35;2.4;70.7
53954;HTU21D;39862;54.856;26.318;2023-03-11T21:08:29;2.3;70.7
53954;HTU21D;39862;54.856;26.318;2023-03-11T21:13:29;2.3;70.5
53954;HTU21D;39862;54.856;26.318;2023-03-11T21:18:45;2.3;70.2
53954;HTU21D;39862;54.856;26.318;2023-03-11T21:23:39;2.2;70.2
53954;HTU21D;39862;54.856;26.318;2023-03-11T21:28:51;2.2;70.2
53954;HTU21D;39862;54.856;26.318;2023-03-11T21:33:29;2.2;70.2
53954;HTU21D;39862;54.856;26.318;2023-03-11T21:38:29;2.2;70
53954;HTU21D;39862;54.856;26.318;2023-03-11T21:43:39;2.2;70
53954;HTU21D;39862;54.856;26.318;2023-03-11T21:48:39;2.2;69.8
53954;HTU21D;39862;54.856;26.318;2023-03-11T21:53:45;2.2;69.7
53954;HTU21D;39862;54.856;26.318;2023-03-11T21:58:57;2.1;69.6
53954;HTU21D;39862;54.856;26.318;2023-03-11T22:03:29;2.2;69.7
53954;HTU21D;39862;54.856;26.318;2023-03-11T22:08:29;2.1;69.6
53954;HTU21D;39862;54.856;26.318;2023-03-11T22:13:50;2.1;69.7
53954;HTU21D;39862;54.856;26.318;2023-03-11T22:18:29;2.1;69.6
53954;HTU21D;39862;54.856;26.318;2023-03-11T22:23:49;2.1;69.3
53954;HTU21D;39862;54.856;26.318;2023-03-11T22:28:39;2.1;69.4
53954;HTU21D;39862;54.856;26.318;2023-03-11T22:33:39;2.1;69.2
53954;HTU21D;39862;54.856;26.318;2023-03-11T22:38:39;2;69.3
53954;HTU21D;39862;54.856;26.318;2023-03-11T22:43:36;2;69.2
53954;HTU21D;39862;54.856;26.318;2023-03-11T22:48:57;2.1;69.2
53954;HTU21D;39862;54.856;26.318;2023-03-11T22:53:39;2;69.2
53954;HTU21D;39862;54.856;26.318;2023-03-11T22:58:39;2;69.2
53954;HTU21D;39862;54.856;26.318;2023-03-11T23:03:29;2;69
53954;HTU21D;39862;54.856;26.318;2023-03-11T23:08:35;2;69
53954;HTU21D;39862;54.856;26.318;2023-03-11T23:13:47;2;68.8
53954;HTU21D;39862;54.856;26.318;2023-03-11T23:18:37;2;68.9
53954;HTU21D;39862;54.856;26.318;2023-03-11T23:23:29;2;68.9
53954;HTU21D;39862;54.856;26.318;2023-03-11T23:28:29;2;68.8
53954;HTU21D;39862;54.856;26.318;2023-03-11T23:33:36;2;68.8
53954;HTU21D;39862;54.856;26.318;2023-03-11T23:38:47;1.9;68.7
53954;HTU21D;39862;54.856;26.318;2023-03-11T23:43:38;1.9;68.7
53954;HTU21D;39862;54.856;26.318;2023-03-11T23:48:39;1.9;68.7
53954;HTU21D;39862;54.856;26.318;2023-03-11T23:53:30;1.9;68.7
53954;HTU21D;39862;54.856;26.318;2023-03-11T23:58:29;1.9;68.7
